createdAt,value
2022-08-09T06:39:48.498Z,99.90
2022-08-09T06:42:58.112Z,99.90
2022-08-09T06:46:07.842Z,99.90
2022-08-09T06:49:16.044Z,99.90
2022-08-09T06:52:17.796Z,99.90
2022-08-09T06:55:22.936Z,99.90
2022-08-09T06:58:40.806Z,99.90
2022-08-09T07:01:54.266Z,99.90
2022-08-09T07:05:00.805Z,99.90
2022-08-09T07:08:02.473Z,99.90
2022-08-09T07:11:06.424Z,99.90
2022-08-09T07:14:17.979Z,99.90
2022-08-09T07:17:28.500Z,99.90
2022-08-09T07:20:43.737Z,99.90
2022-08-09T07:23:56.389Z,99.90
2022-08-09T07:27:01.379Z,99.90
2022-08-09T07:30:04.075Z,99.90
2022-08-09T07:33:12.395Z,99.90
2022-08-09T07:36:18.422Z,99.90
2022-08-09T07:39:40.842Z,99.90
2022-08-09T07:42:55.974Z,99.90
2022-08-09T07:46:03.008Z,99.90
2022-08-09T07:49:05.554Z,99.90
2022-08-09T07:52:17.059Z,99.90
2022-08-09T07:55:29.012Z,99.90
2022-08-09T08:34:36.374Z,92.20
2022-08-09T08:37:41.726Z,91.70
2022-08-09T08:41:01.734Z,90.60
2022-08-09T08:44:09.143Z,90.00
2022-08-09T08:47:15.841Z,89.60
2022-08-09T08:50:19.854Z,90.50
2022-08-09T08:53:22.337Z,90.00
2022-08-09T08:56:28.055Z,89.40
2022-08-09T08:59:46.777Z,89.30
2022-08-09T09:02:52.813Z,89.50
2022-08-09T09:05:58.839Z,88.30
2022-08-09T09:09:06.735Z,86.30
2022-08-09T09:12:29.526Z,85.60
2022-08-09T09:15:31.398Z,85.90
2022-08-09T09:18:35.380Z,85.60
2022-08-09T09:22:05.203Z,86.70
2022-08-09T09:26:01.787Z,85.50
2022-08-09T09:29:02.387Z,86.70
2022-08-09T09:32:05.743Z,83.90
2022-08-09T09:35:17.805Z,82.50
2022-08-09T09:38:36.303Z,80.60
2022-08-09T09:41:51.256Z,80.00
2022-08-09T09:45:01.081Z,81.10
2022-08-09T09:48:05.322Z,82.60
2022-08-09T09:51:07.195Z,92.50
2022-08-09T09:54:20.560Z,81.30
2022-08-09T09:58:02.605Z,81.30
2022-08-09T10:00:54.829Z,79.40
2022-08-09T10:04:00.104Z,79.50
2022-08-09T10:07:09.748Z,80.80
2022-08-09T10:10:11.941Z,81.10
2022-08-09T10:13:13.704Z,79.30
2022-08-09T10:16:57.200Z,78.60
2022-08-09T10:19:56.997Z,79.90
2022-08-09T10:23:12.289Z,76.60
2022-08-09T10:26:15.552Z,76.00
2022-08-09T10:30:27.340Z,77.70
2022-08-09T10:32:45.441Z,77.10
2022-08-09T10:35:49.169Z,80.40
2022-08-09T10:38:56.873Z,78.20
2022-08-09T10:42:01.677Z,77.80
2022-08-09T10:45:12.028Z,78.80
2022-08-09T10:48:39.114Z,79.50
2022-08-09T10:52:05.292Z,79.80
2022-08-09T10:55:28.867Z,81.40
2022-08-09T10:58:55.351Z,80.60
2022-08-09T11:03:15.687Z,81.70
2022-08-09T11:05:24.900Z,81.40
2022-08-09T11:08:47.297Z,81.60
2022-08-09T11:11:57.865Z,80.00
2022-08-09T11:15:23.816Z,80.80
2022-08-09T11:18:46.023Z,80.60
2022-08-09T11:22:05.168Z,81.80
2022-08-09T11:25:15.449Z,80.00
2022-08-09T11:28:56.363Z,80.60
2022-08-09T11:31:58.873Z,79.20
2022-08-09T11:35:02.600Z,78.70
2022-08-09T11:38:19.640Z,79.40
2022-08-09T11:41:37.691Z,78.40
2022-08-09T11:44:45.341Z,78.10
2022-08-09T11:47:53.103Z,78.40
2022-08-09T11:51:38.236Z,77.70
2022-08-09T11:54:28.202Z,78.00
2022-08-09T11:58:00.824Z,79.30
2022-08-09T12:02:15.988Z,79.10
2022-08-09T12:04:38.527Z,84.10
2022-08-09T12:07:42.166Z,86.00
2022-08-09T12:10:48.305Z,85.90
2022-08-09T12:14:07.540Z,85.80
2022-08-09T12:17:34.305Z,86.60
2022-08-09T12:20:41.944Z,87.60
2022-08-09T12:23:58.130Z,85.90
2022-08-09T12:29:10.221Z,85.50
2022-08-09T12:30:40.405Z,86.10
2022-08-09T12:33:58.342Z,82.70
2022-08-09T12:37:21.300Z,82.80
2022-08-09T12:40:28.465Z,82.60
2022-08-09T12:44:06.802Z,83.20
2022-08-09T12:46:54.170Z,84.00
2022-08-09T12:50:14.889Z,85.70
2022-08-09T12:53:37.017Z,86.00
2022-08-09T12:56:51.400Z,86.70
2022-08-09T13:00:11.694Z,85.40
2022-08-09T13:03:24.597Z,86.00
2022-08-09T13:06:36.888Z,86.00
2022-08-09T13:09:52.769Z,85.20
2022-08-09T13:13:09.635Z,86.40
2022-08-09T13:16:15.674Z,88.00
2022-08-09T13:20:08.554Z,86.40
2022-08-09T13:23:04.884Z,86.40
2022-08-09T13:26:11.865Z,88.50
2022-08-09T13:29:16.269Z,89.40
2022-08-09T13:32:26.420Z,89.90
2022-08-09T13:35:34.622Z,89.60
2022-08-09T13:38:55.450Z,89.80
2022-08-09T13:42:11.938Z,89.50
2022-08-09T13:45:15.958Z,89.90
2022-08-09T13:48:19.381Z,89.30
2022-08-09T13:51:21.138Z,88.70
2022-08-09T13:54:25.924Z,88.80
2022-08-09T13:57:36.809Z,89.60
2022-08-09T14:00:49.980Z,88.50
2022-08-09T14:04:03.702Z,89.10
2022-08-09T14:07:07.240Z,90.10
2022-08-09T14:10:17.386Z,89.90
2022-08-09T14:14:24.563Z,88.60
2022-08-09T14:16:56.571Z,88.80
2022-08-09T14:20:01.244Z,88.30
2022-08-09T14:23:05.746Z,89.90
2022-08-09T14:26:10.075Z,90.20
2022-08-09T14:30:15.141Z,89.40
2022-08-09T14:32:37.943Z,89.70
2022-08-09T14:35:52.831Z,90.50
2022-08-09T14:38:55.287Z,90.40
2022-08-09T14:41:57.054Z,90.20
2022-08-09T14:45:00.893Z,90.20
2022-08-09T14:48:03.002Z,90.50
2022-08-09T14:51:05.750Z,90.80
2022-08-09T14:54:10.699Z,91.00
2022-08-09T14:57:16.699Z,91.10
2022-08-09T15:00:18.477Z,91.10
2022-08-09T15:03:20.912Z,91.20
2022-08-09T15:06:22.945Z,91.30
2022-08-09T15:10:03.367Z,91.00
2022-08-09T15:12:49.098Z,91.00
2022-08-09T15:15:51.868Z,90.80
2022-08-09T15:18:53.963Z,90.30
2022-08-09T15:22:02.669Z,90.90
2022-08-09T15:25:04.867Z,90.80
2022-08-09T15:28:26.158Z,91.30
2022-08-09T15:31:41.045Z,91.00
2022-08-09T15:34:43.796Z,90.90
2022-08-09T15:37:56.231Z,91.00
2022-08-09T15:41:10.119Z,90.30
2022-08-09T15:44:12.201Z,90.50
2022-08-09T15:47:23.505Z,90.20
2022-08-09T15:50:39.139Z,90.10
2022-08-09T15:54:05.507Z,90.60
2022-08-09T15:57:11.361Z,91.30
2022-08-09T16:00:21.868Z,91.00
2022-08-09T16:03:38.165Z,91.60
2022-08-09T16:06:44.610Z,91.30
2022-08-09T16:10:04.383Z,91.70
2022-08-09T16:13:18.711Z,91.30
2022-08-09T16:16:31.570Z,91.10
2022-08-09T16:19:36.788Z,91.60
2022-08-09T16:22:42.449Z,91.50
2022-08-09T16:25:50.619Z,91.90
2022-08-09T16:28:52.282Z,92.10
2022-08-09T16:32:12.640Z,91.80
2022-08-09T16:35:57.216Z,91.90
2022-08-09T16:38:42.165Z,92.60
2022-08-09T16:42:23.752Z,92.30
2022-08-09T16:45:26.400Z,92.90
2022-08-09T16:48:39.565Z,93.00
2022-08-09T16:51:53.880Z,93.70
2022-08-09T16:54:57.214Z,94.00
2022-08-09T16:58:08.468Z,94.20
2022-08-09T17:01:11.308Z,95.00
2022-08-09T17:04:24.443Z,95.50
2022-08-09T17:08:43.077Z,96.20
2022-08-09T17:10:51.830Z,98.30
2022-08-09T17:14:01.362Z,99.90
2022-08-09T17:17:23.340Z,99.90
2022-08-09T17:36:24.877Z,92.80
2022-08-09T17:39:27.795Z,93.30
2022-08-09T17:42:49.656Z,93.00
2022-08-09T17:46:05.735Z,92.80
2022-08-09T17:49:08.877Z,93.00
2022-08-09T17:52:21.948Z,93.30
2022-08-09T17:55:24.281Z,93.50
2022-08-09T17:58:45.931Z,93.70
2022-08-09T18:02:07.978Z,93.90
2022-08-09T18:05:13.007Z,94.00
2022-08-09T18:08:14.980Z,94.10
2022-08-09T18:11:18.686Z,94.30
2022-08-09T18:14:25.866Z,94.40
2022-08-09T18:18:02.124Z,94.50
2022-08-09T18:21:10.391Z,94.80
2022-08-09T18:24:15.335Z,95.00
2022-08-09T18:27:18.875Z,95.10
2022-08-09T18:30:49.728Z,95.40
2022-08-09T18:33:53.613Z,95.80
2022-08-09T18:36:55.829Z,95.70
2022-08-09T18:39:57.790Z,96.10
2022-08-09T18:42:59.560Z,96.30
2022-08-09T18:46:49.153Z,96.50
2022-08-09T18:49:23.853Z,96.90
2022-08-09T18:52:35.341Z,96.90
2022-08-09T18:55:56.432Z,97.10
2022-08-09T18:59:01.195Z,97.30
2022-08-09T19:02:03.413Z,97.60
2022-08-09T19:05:20.076Z,97.80
2022-08-09T19:08:28.312Z,98.00
2022-08-09T19:11:37.813Z,98.00
2022-08-09T19:14:40.257Z,98.40
2022-08-09T19:17:54.945Z,98.80
2022-08-09T19:21:00.745Z,98.80
2022-08-09T19:24:33.433Z,98.80
2022-08-09T19:27:28.781Z,99.10
2022-08-09T19:30:39.829Z,99.50
2022-08-09T19:33:46.115Z,99.80
2022-08-09T19:36:47.858Z,99.90
2022-08-09T19:40:03.759Z,99.90
2022-08-09T19:46:34.176Z,99.40
2022-08-09T19:50:09.647Z,99.90
2022-08-09T19:52:59.290Z,99.90
2022-08-09T19:56:06.804Z,99.90
2022-08-09T19:59:39.786Z,99.90
2022-08-09T20:04:23.941Z,99.90
2022-08-09T20:05:51.960Z,99.90
2022-08-09T20:08:56.783Z,99.90
2022-08-09T20:12:02.425Z,99.90
2022-08-09T20:15:10.408Z,99.90
2022-08-09T20:18:28.502Z,99.90
2022-08-09T20:21:40.726Z,99.90
2022-08-09T20:25:24.277Z,99.90
2022-08-09T20:28:34.094Z,99.90
2022-08-09T20:31:40.743Z,99.90
2022-08-09T20:34:58.053Z,99.90
2022-08-09T20:38:20.584Z,99.90
2022-08-09T20:41:35.220Z,99.90
2022-08-09T20:44:39.084Z,99.90
2022-08-09T20:47:48.502Z,99.90
2022-08-09T20:50:55.618Z,99.90
2022-08-09T20:54:00.074Z,99.90
2022-08-09T20:57:05.696Z,99.90
2022-08-09T21:00:22.096Z,99.90
2022-08-09T21:03:39.400Z,99.90
2022-08-09T21:06:54.962Z,99.90
2022-08-09T21:09:58.349Z,99.90
2022-08-09T21:13:57.967Z,99.90
2022-08-09T21:16:59.338Z,99.90
2022-08-09T21:20:17.810Z,99.90
2022-08-09T21:23:47.250Z,99.90
2022-08-09T21:26:46.349Z,99.90
2022-08-09T21:29:50.035Z,99.90
2022-08-09T21:32:53.620Z,99.90
2022-08-09T21:35:55.296Z,99.90
2022-08-09T21:39:01.017Z,99.90
2022-08-09T21:42:10.493Z,99.90
2022-08-09T21:45:17.357Z,99.90
2022-08-09T21:48:19.246Z,99.90
2022-08-09T21:51:35.940Z,99.90
2022-08-09T21:55:04.734Z,99.90
2022-08-09T21:58:06.949Z,99.90
2022-08-09T22:01:26.123Z,99.90
2022-08-09T22:04:57.320Z,99.90
2022-08-09T22:08:00.479Z,99.90
2022-08-09T22:12:06.767Z,99.90
2022-08-09T22:14:23.944Z,99.90
2022-08-09T22:17:31.817Z,99.90
2022-08-09T22:20:34.240Z,99.90
2022-08-09T22:23:59.593Z,99.90
2022-08-09T22:27:31.735Z,99.90
2022-08-09T22:30:37.833Z,99.90
2022-08-09T22:33:48.915Z,99.90
2022-08-09T22:36:51.088Z,99.90
2022-08-09T22:39:57.841Z,99.90
2022-08-09T22:43:00.541Z,99.90
2022-08-09T22:48:11.356Z,99.90
2022-08-09T22:49:24.568Z,99.90
2022-08-09T22:52:26.261Z,99.90
2022-08-09T22:55:39.728Z,99.90
2022-08-09T22:58:51.489Z,99.90
2022-08-09T23:01:53.242Z,99.90
2022-08-09T23:04:56.853Z,99.90
2022-08-09T23:08:22.959Z,99.90
2022-08-09T23:11:31.512Z,99.90
2022-08-09T23:14:41.897Z,99.90
2022-08-09T23:17:44.334Z,99.90
2022-08-09T23:20:46.247Z,99.90
2022-08-09T23:24:05.124Z,99.90
2022-08-09T23:27:08.327Z,99.90
2022-08-09T23:30:10.466Z,99.90
2022-08-09T23:33:12.147Z,99.90
2022-08-09T23:36:14.016Z,99.90
2022-08-09T23:39:15.779Z,99.90
2022-08-09T23:42:17.494Z,99.90
2022-08-09T23:45:37.237Z,99.90
2022-08-09T23:48:40.100Z,99.90
2022-08-09T23:51:41.779Z,99.90
2022-08-09T23:54:44.430Z,99.90
2022-08-09T23:57:56.229Z,99.90
